createdAt,value
2023-02-23T00:01:52.962Z,87.80
2023-02-23T00:04:19.639Z,88.09
2023-02-23T00:06:46.333Z,88.11
2023-02-23T00:09:23.020Z,88.39
2023-02-23T00:11:54.914Z,89.11
2023-02-23T00:14:27.231Z,88.68
2023-02-23T00:16:57.393Z,89.57
2023-02-23T00:19:25.143Z,90.21
2023-02-23T00:21:52.937Z,90.42
2023-02-23T00:24:20.839Z,90.87
2023-02-23T00:26:48.393Z,91.38
2023-02-23T00:29:25.446Z,91.50
2023-02-23T00:31:52.952Z,90.90
2023-02-23T00:34:21.465Z,91.40
2023-02-23T00:36:54.492Z,91.58
2023-02-23T00:39:26.304Z,91.76
2023-02-23T00:41:55.323Z,92.28
2023-02-23T00:44:23.575Z,92.38
2023-02-23T00:46:51.914Z,92.67
2023-02-23T00:49:20.460Z,92.23
2023-02-23T00:51:47.510Z,92.62
2023-02-23T00:54:15.942Z,92.81
2023-02-23T00:56:42.979Z,92.83
2023-02-23T00:59:10.499Z,92.23
2023-02-23T01:01:38.456Z,92.34
2023-02-23T01:04:06.269Z,92.24
2023-02-23T01:06:33.239Z,92.29
2023-02-23T01:08:59.868Z,92.73
2023-02-23T01:11:31.078Z,92.64
2023-02-23T01:13:59.894Z,92.43
2023-02-23T01:16:29.533Z,92.94
2023-02-23T01:18:59.384Z,93.17
2023-02-23T01:21:29.531Z,93.79
2023-02-23T01:23:57.336Z,94.27
2023-02-23T01:26:37.460Z,93.95
2023-02-23T01:29:09.936Z,94.85
2023-02-23T01:31:39.122Z,95.01
2023-02-23T01:34:06.801Z,94.55
2023-02-23T01:36:36.124Z,93.76
2023-02-23T01:39:06.819Z,93.90
2023-02-23T01:41:35.103Z,94.05
2023-02-23T01:44:45.204Z,94.45
2023-02-23T01:47:14.209Z,94.87
2023-02-23T01:49:41.118Z,93.63
2023-02-23T01:52:11.079Z,93.76
2023-02-23T01:54:44.285Z,94.06
2023-02-23T01:57:14.535Z,93.75
2023-02-23T01:59:46.896Z,93.47
2023-02-23T02:02:14.440Z,94.33
2023-02-23T02:04:46.505Z,94.33
2023-02-23T02:07:16.103Z,94.52
2023-02-23T02:10:04.083Z,94.98
2023-02-23T02:12:30.686Z,94.26
2023-02-23T02:15:00.110Z,93.92
2023-02-23T02:18:09.336Z,94.16
2023-02-23T02:21:06.282Z,94.51
2023-02-23T02:24:10.318Z,94.40
2023-02-23T02:27:11.936Z,93.39
2023-02-23T02:30:13.037Z,93.71
2023-02-23T02:33:32.230Z,93.95
2023-02-23T02:36:48.190Z,94.39
2023-02-23T02:39:55.575Z,94.91
2023-02-23T02:42:40.130Z,95.06
2023-02-23T02:45:26.836Z,94.30
2023-02-23T02:48:31.218Z,94.17
2023-02-23T02:51:24.703Z,94.53
2023-02-23T02:54:26.216Z,94.85
2023-02-23T02:56:57.692Z,95.25
2023-02-23T02:59:43.246Z,94.72
2023-02-23T03:02:39.162Z,95.47
2023-02-23T03:06:06.114Z,95.78
2023-02-23T03:09:12.828Z,95.66
2023-02-23T03:12:02.052Z,95.87
2023-02-23T03:14:56.907Z,95.33
2023-02-23T03:17:56.820Z,94.50
2023-02-23T03:21:16.413Z,94.73
2023-02-23T03:24:38.516Z,94.97
2023-02-23T03:27:32.663Z,94.35
2023-02-23T03:30:23.631Z,93.60
2023-02-23T03:33:12.681Z,93.42
2023-02-23T03:36:10.203Z,92.91
2023-02-23T03:39:19.528Z,92.94
2023-02-23T03:42:07.252Z,92.47
2023-02-23T03:44:57.888Z,92.53
2023-02-23T03:47:46.298Z,92.75
2023-02-23T03:51:04.396Z,92.93
2023-02-23T03:54:00.204Z,94.04
2023-02-23T03:56:47.330Z,93.88
2023-02-23T03:59:37.081Z,93.94
2023-02-23T04:02:24.847Z,93.53
2023-02-23T04:05:12.058Z,93.90
2023-02-23T04:07:59.547Z,94.04
2023-02-23T04:10:48.395Z,93.96
2023-02-23T04:13:20.206Z,93.77
2023-02-23T04:16:10.834Z,93.52
2023-02-23T04:18:39.674Z,93.79
2023-02-23T04:21:07.582Z,94.17
2023-02-23T04:23:35.214Z,94.25
2023-02-23T04:26:01.845Z,94.61
2023-02-23T04:28:29.145Z,94.44
2023-02-23T04:30:55.902Z,94.44
2023-02-23T04:33:24.981Z,94.72
2023-02-23T04:35:54.005Z,94.63
2023-02-23T04:38:21.148Z,94.48
2023-02-23T04:40:49.544Z,95.09
2023-02-23T04:43:16.144Z,95.63
2023-02-23T04:45:43.993Z,94.82
2023-02-23T04:48:10.667Z,94.93
2023-02-23T04:50:37.372Z,94.83
2023-02-23T04:53:04.124Z,95.05
2023-02-23T04:55:31.096Z,94.55
2023-02-23T04:58:00.064Z,94.19
2023-02-23T05:00:27.414Z,94.92
2023-02-23T05:02:54.048Z,94.73
2023-02-23T05:05:21.453Z,94.44
2023-02-23T05:07:48.251Z,94.04
2023-02-23T05:10:14.891Z,93.86
2023-02-23T05:12:41.651Z,93.55
2023-02-23T05:15:11.109Z,92.87
2023-02-23T05:17:41.222Z,92.99
2023-02-23T05:20:10.581Z,92.87
2023-02-23T05:22:37.950Z,92.56
2023-02-23T05:25:05.746Z,92.28
2023-02-23T05:27:32.752Z,92.59
2023-02-23T05:29:59.437Z,91.92
2023-02-23T05:32:26.259Z,92.07
2023-02-23T05:34:53.027Z,91.60
2023-02-23T05:37:20.040Z,91.67
2023-02-23T05:39:47.621Z,91.29
2023-02-23T05:42:14.253Z,91.24
2023-02-23T05:44:40.932Z,91.66
2023-02-23T05:47:07.565Z,92.85
2023-02-23T05:49:34.196Z,93.24
2023-02-23T05:52:00.815Z,93.48
2023-02-23T05:54:27.508Z,94.04
2023-02-23T05:56:54.457Z,93.76
2023-02-23T05:59:21.178Z,94.44
2023-02-23T06:01:47.860Z,93.81
2023-02-23T06:04:14.510Z,93.81
2023-02-23T06:06:41.131Z,94.26
2023-02-23T06:09:07.746Z,93.70
2023-02-23T06:11:34.516Z,93.44
2023-02-23T06:14:01.128Z,92.87
2023-02-23T06:16:28.383Z,93.22
2023-02-23T06:18:55.299Z,93.31
2023-02-23T06:21:22.010Z,93.56
2023-02-23T06:23:48.678Z,93.33
2023-02-23T06:26:15.292Z,94.11
2023-02-23T06:28:41.961Z,95.26
2023-02-23T06:31:08.675Z,95.45
2023-02-23T06:33:35.419Z,94.50
2023-02-23T06:36:02.014Z,94.43
2023-02-23T06:38:29.343Z,93.41
2023-02-23T06:40:55.962Z,93.41
2023-02-23T06:43:23.413Z,93.09
2023-02-23T06:45:50.307Z,92.94
2023-02-23T06:48:17.626Z,93.19
2023-02-23T06:50:44.297Z,93.17
2023-02-23T06:53:10.883Z,93.14
2023-02-23T06:55:37.529Z,93.38
2023-02-23T06:58:04.973Z,93.51
2023-02-23T07:00:31.587Z,93.27
2023-02-23T07:02:59.788Z,93.31
2023-02-23T07:05:26.658Z,93.82
2023-02-23T07:07:53.235Z,94.46
2023-02-23T07:10:19.957Z,94.01
2023-02-23T07:12:46.970Z,93.46
2023-02-23T07:15:14.680Z,92.89
2023-02-23T07:17:41.221Z,93.32
2023-02-23T07:20:08.541Z,93.52
2023-02-23T07:22:35.149Z,93.82
2023-02-23T07:25:01.712Z,93.20
2023-02-23T07:27:28.458Z,92.04
2023-02-23T07:29:55.117Z,91.55
2023-02-23T07:32:22.039Z,91.31
2023-02-23T07:34:48.731Z,90.32
2023-02-23T07:37:17.214Z,89.79
2023-02-23T07:39:44.250Z,90.31
2023-02-23T07:42:10.915Z,89.77
2023-02-23T07:44:38.181Z,90.10
2023-02-23T07:47:05.196Z,90.02
2023-02-23T07:49:32.885Z,90.14
2023-02-23T07:51:59.637Z,89.26
2023-02-23T07:54:26.593Z,89.39
2023-02-23T07:56:53.485Z,89.03
2023-02-23T07:59:20.618Z,89.02
2023-02-23T08:01:47.240Z,88.72
2023-02-23T08:04:13.900Z,87.64
2023-02-23T08:06:40.538Z,87.69
2023-02-23T08:09:07.425Z,88.38
2023-02-23T08:11:34.204Z,88.17
2023-02-23T08:14:01.012Z,87.96
2023-02-23T08:16:31.923Z,89.14
2023-02-23T08:18:59.050Z,88.30
2023-02-23T08:21:29.632Z,88.23
2023-02-23T08:23:57.644Z,88.29
2023-02-23T08:26:25.375Z,88.31
2023-02-23T08:28:53.354Z,88.42
2023-02-23T08:31:24.052Z,89.45
2023-02-23T08:33:51.815Z,88.67
2023-02-23T08:36:18.921Z,88.60
2023-02-23T08:38:45.487Z,88.13
2023-02-23T08:41:12.432Z,87.55
2023-02-23T08:43:39.301Z,86.87
2023-02-23T08:46:07.146Z,86.84
2023-02-23T08:48:35.122Z,86.49
2023-02-23T08:51:01.837Z,85.69
2023-02-23T08:53:29.716Z,85.33
2023-02-23T08:56:00.753Z,85.27
2023-02-23T08:58:30.427Z,84.48
2023-02-23T09:00:57.829Z,84.21
2023-02-23T09:03:26.378Z,84.50
2023-02-23T09:05:53.229Z,83.83
2023-02-23T09:08:20.287Z,83.14
2023-02-23T09:10:47.094Z,82.89
2023-02-23T09:13:14.113Z,82.66
2023-02-23T09:15:41.642Z,82.63
2023-02-23T09:18:10.725Z,82.25
2023-02-23T09:20:37.310Z,82.31
2023-02-23T09:23:03.862Z,81.42
2023-02-23T09:25:31.580Z,80.89
2023-02-23T09:27:59.575Z,80.97
2023-02-23T09:30:27.711Z,80.38
2023-02-23T09:32:56.409Z,79.80
2023-02-23T09:35:24.801Z,80.53
2023-02-23T09:37:54.866Z,80.23
2023-02-23T09:40:28.048Z,80.30
2023-02-23T09:43:03.736Z,79.71
2023-02-23T09:45:43.688Z,79.62
2023-02-23T09:48:12.942Z,78.99
2023-02-23T09:50:42.039Z,78.29
2023-02-23T09:53:26.040Z,78.51
2023-02-23T09:55:57.434Z,77.21
2023-02-23T09:58:30.845Z,76.12
2023-02-23T10:01:35.971Z,76.01
2023-02-23T10:04:36.407Z,76.16
2023-02-23T10:07:33.093Z,75.97
2023-02-23T10:10:16.678Z,76.75
2023-02-23T10:12:46.168Z,75.98
2023-02-23T10:15:40.639Z,75.33
2023-02-23T10:18:50.282Z,76.28
2023-02-23T10:21:21.949Z,76.49
2023-02-23T10:24:22.539Z,75.50
2023-02-23T10:27:10.289Z,75.21
2023-02-23T10:29:52.744Z,75.23
2023-02-23T10:32:29.374Z,74.96
2023-02-23T10:34:56.780Z,75.11
2023-02-23T10:37:25.706Z,75.61
2023-02-23T10:39:53.391Z,75.61
2023-02-23T10:42:31.800Z,75.48
2023-02-23T10:44:59.435Z,75.93
2023-02-23T10:47:32.843Z,76.40
2023-02-23T10:49:59.393Z,76.74
2023-02-23T10:52:55.197Z,76.71
2023-02-23T10:55:28.669Z,76.20
2023-02-23T10:58:21.653Z,77.73
2023-02-23T11:00:56.198Z,77.52
2023-02-23T11:03:45.743Z,77.55
2023-02-23T11:06:36.047Z,78.25
2023-02-23T11:09:43.342Z,79.35
2023-02-23T11:12:25.512Z,78.75
2023-02-23T11:14:57.692Z,78.49
2023-02-23T11:17:36.641Z,77.81
2023-02-23T11:20:18.372Z,78.46
2023-02-23T11:22:45.703Z,78.80
2023-02-23T11:25:22.030Z,78.06
2023-02-23T11:27:53.836Z,77.05
2023-02-23T11:30:25.245Z,76.68
2023-02-23T11:32:56.411Z,76.31
2023-02-23T11:35:29.291Z,75.65
2023-02-23T11:37:56.245Z,76.00
2023-02-23T11:40:26.391Z,75.94
2023-02-23T11:43:14.703Z,75.42
2023-02-23T11:45:50.559Z,73.55
2023-02-23T11:48:22.461Z,73.86
2023-02-23T11:50:50.392Z,74.15
2023-02-23T11:53:21.607Z,73.98
2023-02-23T11:55:50.972Z,73.57
2023-02-23T11:58:35.803Z,73.81
2023-02-23T12:01:14.435Z,74.50
2023-02-23T12:03:48.209Z,74.12
2023-02-23T12:06:34.821Z,73.06
2023-02-23T12:09:29.616Z,74.30
2023-02-23T12:12:06.815Z,74.54
2023-02-23T12:14:56.405Z,74.35
2023-02-23T12:17:29.758Z,74.95
2023-02-23T12:20:06.692Z,75.07
2023-02-23T12:22:43.032Z,75.92
2023-02-23T12:25:22.971Z,76.04
2023-02-23T12:28:18.557Z,74.90
2023-02-23T12:30:55.073Z,74.76
2023-02-23T12:33:33.964Z,74.25
2023-02-23T12:36:20.829Z,74.52
2023-02-23T12:39:04.721Z,74.09
2023-02-23T12:41:43.225Z,74.37
2023-02-23T12:44:42.994Z,74.84
2023-02-23T12:47:21.606Z,75.46
2023-02-23T12:49:57.398Z,74.64
2023-02-23T12:52:33.659Z,75.11
2023-02-23T12:55:01.589Z,76.74
2023-02-23T12:58:07.975Z,77.07
2023-02-23T13:00:59.156Z,78.19
2023-02-23T13:03:38.425Z,77.98
2023-02-23T13:06:36.749Z,77.09
2023-02-23T13:09:20.024Z,77.28
2023-02-23T13:12:15.186Z,76.76
2023-02-23T13:14:44.949Z,77.02
2023-02-23T13:17:33.133Z,77.41
2023-02-23T13:20:24.691Z,78.00
2023-02-23T13:23:28.071Z,78.15
2023-02-23T13:25:58.034Z,78.19
2023-02-23T13:29:07.877Z,78.37
2023-02-23T13:31:37.114Z,78.62
2023-02-23T13:34:09.123Z,78.02
2023-02-23T13:36:36.832Z,77.18
2023-02-23T13:39:32.340Z,76.72
2023-02-23T13:42:20.286Z,76.60
2023-02-23T13:45:07.117Z,76.41
2023-02-23T13:47:47.106Z,75.15
2023-02-23T13:50:36.035Z,75.37
2023-02-23T13:53:06.883Z,75.12
2023-02-23T13:55:51.597Z,75.08
2023-02-23T13:58:28.340Z,74.96
2023-02-23T14:01:05.998Z,74.84
2023-02-23T14:03:39.875Z,74.77
2023-02-23T14:06:07.908Z,74.68
2023-02-23T14:08:38.570Z,74.51
2023-02-23T14:11:06.555Z,74.73
2023-02-23T14:13:39.208Z,74.91
2023-02-23T14:16:26.468Z,75.38
2023-02-23T14:19:10.618Z,75.22
2023-02-23T14:22:11.454Z,75.78
2023-02-23T14:24:38.284Z,76.09
2023-02-23T14:27:10.732Z,76.66
2023-02-23T14:29:41.885Z,76.67
2023-02-23T14:32:31.805Z,76.32
2023-02-23T14:35:02.769Z,76.05
2023-02-23T14:37:42.688Z,76.77
2023-02-23T14:40:29.629Z,76.90
2023-02-23T14:43:01.263Z,77.47
2023-02-23T14:45:38.870Z,77.57
2023-02-23T14:48:12.838Z,77.36
2023-02-23T14:50:41.343Z,77.65
2023-02-23T14:53:18.521Z,78.32
2023-02-23T14:55:45.652Z,78.56
2023-02-23T14:58:33.421Z,78.67
2023-02-23T15:01:00.211Z,79.61
2023-02-23T15:03:26.853Z,79.60
2023-02-23T15:05:57.486Z,79.89
2023-02-23T15:08:27.235Z,80.25
2023-02-23T15:11:03.503Z,80.48
2023-02-23T15:13:40.217Z,80.24
2023-02-23T15:16:09.871Z,80.52
2023-02-23T15:18:41.793Z,80.38
2023-02-23T15:21:16.280Z,80.99
2023-02-23T15:23:49.164Z,80.91
2023-02-23T15:26:25.144Z,80.60
2023-02-23T15:28:52.012Z,80.41
2023-02-23T15:31:20.016Z,81.13
2023-02-23T15:33:50.696Z,81.64
2023-02-23T15:36:31.459Z,81.35
2023-02-23T15:39:00.605Z,81.45
2023-02-23T15:41:36.788Z,81.22
2023-02-23T15:44:11.687Z,81.08
2023-02-23T15:46:38.928Z,81.34
2023-02-23T15:49:06.929Z,81.26
2023-02-23T15:51:48.877Z,81.22
2023-02-23T15:54:18.306Z,81.59
2023-02-23T15:56:49.795Z,81.55
2023-02-23T15:59:26.455Z,81.62
2023-02-23T16:01:54.730Z,81.64
2023-02-23T16:04:28.008Z,81.80
2023-02-23T16:07:15.062Z,81.65
2023-02-23T16:09:49.670Z,82.01
2023-02-23T16:12:23.526Z,81.99
2023-02-23T16:14:55.121Z,81.85
2023-02-23T16:17:27.508Z,82.62
2023-02-23T16:20:14.154Z,82.46
2023-02-23T16:22:42.443Z,82.67
2023-02-23T16:25:14.457Z,83.07
2023-02-23T16:27:43.276Z,82.58
2023-02-23T16:30:34.364Z,82.73
2023-02-23T16:33:20.809Z,82.51
2023-02-23T16:35:53.559Z,82.96
2023-02-23T16:38:38.459Z,83.49
2023-02-23T16:41:10.289Z,83.44
2023-02-23T16:43:37.404Z,83.43
2023-02-23T16:46:04.192Z,83.32
2023-02-23T16:48:30.837Z,82.85
2023-02-23T16:50:57.639Z,83.42
2023-02-23T16:53:24.439Z,83.72
2023-02-23T16:55:53.917Z,83.34
2023-02-23T16:58:24.801Z,83.31
2023-02-23T17:00:52.361Z,83.10
2023-02-23T17:03:23.767Z,83.23
2023-02-23T17:05:51.206Z,82.63
2023-02-23T17:08:18.121Z,83.76
2023-02-23T17:10:48.122Z,84.26
2023-02-23T17:13:21.264Z,84.36
2023-02-23T17:15:54.047Z,83.84
2023-02-23T17:20:56.480Z,83.97
2023-02-23T17:23:29.019Z,83.78
2023-02-23T17:25:58.714Z,84.08
2023-02-23T17:28:25.897Z,83.85
2023-02-23T17:30:52.588Z,83.62
2023-02-23T17:33:19.561Z,84.50
2023-02-23T17:35:46.827Z,84.34
2023-02-23T17:38:14.938Z,84.22
2023-02-23T17:40:41.591Z,84.47
2023-02-23T17:43:08.263Z,84.78
2023-02-23T17:45:34.922Z,85.72
2023-02-23T17:48:01.804Z,86.54
2023-02-23T17:50:28.865Z,86.35
2023-02-23T17:52:55.946Z,86.65
2023-02-23T17:55:23.427Z,85.97
2023-02-23T17:57:50.167Z,86.66
2023-02-23T18:00:19.016Z,86.63
2023-02-23T18:02:46.015Z,86.21
2023-02-23T18:05:13.823Z,86.24
2023-02-23T18:07:40.524Z,86.81
2023-02-23T18:10:08.646Z,86.20
2023-02-23T18:12:35.360Z,85.79
2023-02-23T18:15:02.070Z,85.91
2023-02-23T18:17:28.808Z,85.72
2023-02-23T18:19:55.425Z,85.52
2023-02-23T18:22:22.016Z,85.59
2023-02-23T18:24:48.670Z,86.21
2023-02-23T18:27:15.291Z,86.19
2023-02-23T18:29:41.949Z,86.22
2023-02-23T18:32:08.894Z,87.06
2023-02-23T18:34:35.664Z,87.21
2023-02-23T18:37:03.509Z,86.91
2023-02-23T18:39:31.561Z,87.12
2023-02-23T18:41:59.817Z,87.13
2023-02-23T18:44:27.057Z,86.74
2023-02-23T18:46:54.858Z,87.77
2023-02-23T18:49:24.435Z,88.42
2023-02-23T18:51:51.574Z,87.80
2023-02-23T18:54:18.889Z,87.96
2023-02-23T18:56:47.296Z,88.28
2023-02-23T18:59:14.760Z,87.62
2023-02-23T19:01:46.571Z,88.08
2023-02-23T19:04:13.721Z,87.99
2023-02-23T19:06:43.762Z,88.22
2023-02-23T19:09:13.355Z,88.18
2023-02-23T19:11:42.696Z,87.94
2023-02-23T19:14:13.691Z,88.13
2023-02-23T19:16:41.229Z,88.28
2023-02-23T19:19:08.961Z,88.35
2023-02-23T19:21:36.298Z,88.10
2023-02-23T19:24:03.565Z,87.75
2023-02-23T19:26:31.340Z,87.84
2023-02-23T19:28:58.676Z,88.30
2023-02-23T19:31:26.397Z,88.81
2023-02-23T19:33:55.980Z,88.35
2023-02-23T19:36:29.568Z,88.89
2023-02-23T19:39:10.740Z,88.72
2023-02-23T19:41:39.397Z,89.13
2023-02-23T19:44:06.759Z,88.64
2023-02-23T19:46:33.590Z,89.62
2023-02-23T19:49:00.730Z,89.76
2023-02-23T19:51:27.524Z,89.60
2023-02-23T19:53:55.153Z,90.28
2023-02-23T19:56:24.588Z,90.54
2023-02-23T19:58:52.170Z,89.83
2023-02-23T20:01:21.202Z,90.33
2023-02-23T20:03:55.211Z,90.84
2023-02-23T20:06:24.446Z,91.27
2023-02-23T20:08:52.545Z,92.11
2023-02-23T20:11:19.846Z,92.12
2023-02-23T20:13:47.238Z,91.87
2023-02-23T20:16:15.199Z,92.40
2023-02-23T20:18:43.599Z,91.81
2023-02-23T20:21:19.349Z,92.31
2023-02-23T20:23:47.134Z,92.40
2023-02-23T20:26:23.554Z,92.27
2023-02-23T20:28:51.206Z,92.06
2023-02-23T20:31:21.204Z,91.19
2023-02-23T20:33:51.198Z,91.14
2023-02-23T20:36:20.028Z,90.87
2023-02-23T20:38:47.132Z,90.71
2023-02-23T20:41:13.842Z,90.87
2023-02-23T20:43:40.798Z,90.82
2023-02-23T20:46:07.629Z,90.93
2023-02-23T20:48:35.078Z,91.62
2023-02-23T20:51:02.143Z,92.04
2023-02-23T20:53:29.899Z,92.16
2023-02-23T20:55:56.532Z,92.06
2023-02-23T20:58:26.281Z,93.00
2023-02-23T21:01:02.700Z,93.23
2023-02-23T21:03:29.446Z,93.41
2023-02-23T21:05:56.224Z,93.13
2023-02-23T21:08:22.877Z,93.10
2023-02-23T21:10:50.263Z,92.43
2023-02-23T21:13:17.902Z,93.36
2023-02-23T21:15:45.758Z,92.88
2023-02-23T21:18:12.588Z,93.15
2023-02-23T21:20:40.273Z,93.99
2023-02-23T21:23:07.191Z,93.84
2023-02-23T21:25:33.899Z,93.79
2023-02-23T21:28:01.904Z,94.01
2023-02-23T21:30:29.270Z,93.53
2023-02-23T21:32:57.518Z,95.04
2023-02-23T21:35:24.304Z,94.79
2023-02-23T21:37:52.063Z,94.99
2023-02-23T21:40:20.822Z,94.81
2023-02-23T21:42:48.400Z,95.51
2023-02-23T21:45:15.728Z,96.00
2023-02-23T21:47:44.681Z,96.22
2023-02-23T21:50:14.482Z,96.60
2023-02-23T21:52:45.331Z,95.58
2023-02-23T21:55:23.448Z,94.93
2023-02-23T21:57:51.841Z,94.79
2023-02-23T22:00:19.066Z,93.64
2023-02-23T22:02:46.717Z,93.51
2023-02-23T22:05:15.856Z,93.47
2023-02-23T22:07:51.429Z,93.27
2023-02-23T22:10:19.948Z,93.47
2023-02-23T22:12:46.845Z,93.29
2023-02-23T22:15:15.795Z,92.85
2023-02-23T22:17:43.672Z,93.15
2023-02-23T22:20:11.298Z,93.38
2023-02-23T22:22:37.984Z,93.60
2023-02-23T22:25:07.318Z,92.79
2023-02-23T22:27:33.957Z,94.44
2023-02-23T22:30:01.859Z,94.37
2023-02-23T22:32:32.940Z,94.33
2023-02-23T22:35:00.870Z,95.30
2023-02-23T22:37:32.072Z,95.55
2023-02-23T22:40:08.272Z,95.26
2023-02-23T22:42:35.366Z,95.37
2023-02-23T22:45:02.032Z,95.82
2023-02-23T22:47:28.851Z,94.66
2023-02-23T22:49:55.460Z,95.06
2023-02-23T22:52:22.090Z,93.97
2023-02-23T22:54:51.222Z,94.29
2023-02-23T22:57:17.918Z,93.63
2023-02-23T22:59:54.655Z,94.18
2023-02-23T23:02:22.711Z,94.10
2023-02-23T23:04:49.367Z,94.44
2023-02-23T23:07:16.162Z,94.34
2023-02-23T23:09:42.754Z,93.74
2023-02-23T23:12:11.850Z,93.31
2023-02-23T23:14:38.881Z,93.75
2023-02-23T23:17:05.524Z,93.51
2023-02-23T23:19:38.835Z,92.93
2023-02-23T23:22:06.376Z,93.10
2023-02-23T23:24:33.045Z,93.32
2023-02-23T23:27:00.923Z,92.71
2023-02-23T23:29:32.445Z,92.51
2023-02-23T23:32:00.969Z,93.16
2023-02-23T23:34:27.631Z,92.57
2023-02-23T23:36:55.409Z,93.09
2023-02-23T23:39:25.836Z,93.48
2023-02-23T23:41:53.546Z,93.27
2023-02-23T23:44:22.957Z,92.86
2023-02-23T23:46:53.273Z,93.41
2023-02-23T23:49:22.411Z,93.11
2023-02-23T23:51:51.933Z,93.23
2023-02-23T23:54:25.032Z,92.98
2023-02-23T23:56:51.906Z,92.54
2023-02-23T23:59:21.777Z,93.13
